EDJA METAR and TAF | Updated Today

EDJA METAR

Memmingen Allgau Airport

Observation time: 30 min. ago

EDJA 061950Z 05005KT CAVOK 11/10 Q1030

Need help? Read our tutorial on how to read METARs or read the parsed version below.

Memmingen Allgau Airport (EDJA) METAR

  • Weather conditions on Thu, 06 Oct 2022 19:50:00 +0000 (30 min. ago):
  • Present conditions: Dry
  • Clouds: Clear skies
  • Visibility: Greater than 10 km
  • Wind: 50 degrees at 5 knots
  • Temperature: 11 celsius
  • Dew point: 10 celsius
  • Pressure: 1030 millibars
  • Remarks: None


Useful to know...

EDJA TAF

Memmingen Allgau Airport

TAF EDJA 061700Z 0618/0703 05004KT 9999 FEW030 BECMG 0622/0701 1400 BR BKN003 TEMPO 0623/0703 0500 FG VV001
Observation time: 3:20 hr. ago
Need help? Read our tutorial on how to read TAFs or read the parsed version below.

Parsed version of TAF for Memmingen Allgau Airport (EDJA)

  • From 06 October at 18:00 UTC, to day 07 of the month at 03:00 UTC
  • Clouds: A few at 914 meters
  • Visibility: Greater than 10 km
  • Wind: 50 degrees at 4
  • Expected to arise soon, from 06 October at 22:00 UTC, to day 07 of the month at 01:00 UTC
  • Clouds: Broken sky at 91 meters
  • Visibility: 1400 meters
  • Other: Mist
  • Expected to arise temporarily, from 06 October at 23:00 UTC, to day 07 of the month at 03:00 UTC
  • Clouds: Vertical visibility at 30 meters
  • Visibility: 500 meters
  • Other: Fog